Terminal Aerodrome Forecast
Issued by NWS Melbourne, FL

Home | Current Version | Previous Version | Text Only | Print | Product List | Glossary On
Versions: 1 2 3 4 5 6 7 8 9 10 11 12 13 14 15 16 17 18 19
000
FTUS42 KMLB 180527
TAFMLB
TAF
KMLB 180527Z 1806/1906 02013KT 6SM BR VCSH BKN035 OVC100
      TEMPO 1806/1809 3SM SHRA BR BKN020 OVC040
     FM180900 03009KT P6SM VCSH SCT020 BKN080
     FM181400 04010KT P6SM VCSH SCT025 BKN060
     FM181800 04011KT P6SM VCSH SCT025 BKN050=

USA.gov is the U.S. government's official web portal to all federal, state and local government web resources and services.